createdAt,value
2023-01-19T00:00:27.697Z,13.53
2023-01-19T00:02:58.643Z,13.00
2023-01-19T00:05:27.987Z,12.97
2023-01-19T00:07:58.365Z,13.73
2023-01-19T00:10:26.451Z,13.03
2023-01-19T00:13:07.455Z,13.37
2023-01-19T00:15:39.141Z,13.13
2023-01-19T00:18:10.627Z,13.37
2023-01-19T00:20:47.605Z,12.27
2023-01-19T00:23:17.798Z,14.20
2023-01-19T00:25:50.406Z,14.03
2023-01-19T00:28:27.682Z,11.70
2023-01-19T00:30:56.526Z,13.90
2023-01-19T00:33:30.366Z,13.17
2023-01-19T00:36:01.779Z,13.50
2023-01-19T00:38:34.519Z,13.70
2023-01-19T00:41:04.922Z,12.70
2023-01-19T00:43:31.896Z,13.40
2023-01-19T00:46:19.051Z,14.37
2023-01-19T00:48:46.928Z,13.27
2023-01-19T00:51:29.334Z,13.07
2023-01-19T00:53:59.788Z,12.60
2023-01-19T00:56:27.703Z,12.47
2023-01-19T00:58:57.579Z,14.20
2023-01-19T01:01:45.764Z,13.07
2023-01-19T01:04:16.124Z,13.90
2023-01-19T01:06:49.233Z,13.57
2023-01-19T01:09:19.037Z,14.30
2023-01-19T01:11:46.900Z,13.80
2023-01-19T01:14:23.905Z,14.70
2023-01-19T01:16:58.396Z,13.63
2023-01-19T01:19:28.054Z,13.97
2023-01-19T01:22:07.960Z,13.20
2023-01-19T01:24:39.071Z,14.10
2023-01-19T01:27:11.297Z,13.90
2023-01-19T01:29:45.353Z,12.97
2023-01-19T01:32:14.457Z,14.30
2023-01-19T01:34:47.802Z,13.93
2023-01-19T01:37:35.861Z,14.93
2023-01-19T01:40:10.027Z,14.43
2023-01-19T01:42:40.449Z,14.70
2023-01-19T01:45:27.599Z,12.50
2023-01-19T01:48:00.926Z,13.00
2023-01-19T01:50:38.015Z,14.00
2023-01-19T01:53:19.005Z,13.10
2023-01-19T01:55:52.280Z,13.13
2023-01-19T01:58:24.859Z,13.77
2023-01-19T02:01:18.678Z,14.13
2023-01-19T02:03:49.486Z,13.63
2023-01-19T02:06:22.699Z,12.23
2023-01-19T02:09:17.459Z,12.63
2023-01-19T02:12:05.187Z,12.50
2023-01-19T02:14:41.176Z,13.60
2023-01-19T02:17:09.081Z,12.20
2023-01-19T02:19:43.408Z,13.50
2023-01-19T02:22:24.794Z,14.40
2023-01-19T02:24:56.078Z,12.90
2023-01-19T02:27:34.205Z,13.93
2023-01-19T02:30:03.602Z,13.50
2023-01-19T02:32:34.177Z,13.40
2023-01-19T02:35:13.485Z,13.17
2023-01-19T02:37:43.140Z,13.87
2023-01-19T02:40:26.108Z,12.50
2023-01-19T02:45:49.528Z,13.17
2023-01-19T02:48:36.702Z,12.30
2023-01-19T02:51:19.329Z,13.60
2023-01-19T02:54:34.658Z,12.80
2023-01-19T02:57:29.295Z,13.60
2023-01-19T03:00:20.726Z,13.60
2023-01-19T03:03:03.239Z,14.10
2023-01-19T03:05:37.675Z,13.07
2023-01-19T03:08:18.885Z,13.60
2023-01-19T03:10:54.620Z,13.60
2023-01-19T03:13:32.613Z,13.53
2023-01-19T03:16:08.122Z,14.13
2023-01-19T03:18:43.890Z,13.27
2023-01-19T03:21:17.046Z,14.10
2023-01-19T03:23:49.040Z,13.43
2023-01-19T03:26:22.949Z,14.97
2023-01-19T03:28:54.327Z,14.00
2023-01-19T03:31:26.940Z,13.90
2023-01-19T03:34:06.572Z,14.23
2023-01-19T03:36:40.451Z,14.20
2023-01-19T03:39:10.210Z,15.33
2023-01-19T03:41:45.368Z,14.30
2023-01-19T03:44:24.608Z,14.03
2023-01-19T03:46:58.388Z,12.80
2023-01-19T03:49:28.273Z,14.27
2023-01-19T03:51:59.337Z,13.90
2023-01-19T03:54:29.648Z,13.77
2023-01-19T03:56:57.525Z,13.20
2023-01-19T03:59:26.823Z,13.93
2023-01-19T04:01:58.544Z,14.60
2023-01-19T04:04:29.199Z,13.37
2023-01-19T04:07:03.364Z,13.67
2023-01-19T04:09:33.744Z,14.80
2023-01-19T04:12:01.922Z,13.40
2023-01-19T04:14:35.237Z,13.00
2023-01-19T04:17:03.073Z,13.83
2023-01-19T04:19:32.629Z,15.17
2023-01-19T04:22:07.979Z,14.90
2023-01-19T04:24:38.693Z,13.97
2023-01-19T04:27:08.859Z,15.03
2023-01-19T04:29:40.848Z,14.50
2023-01-19T04:32:12.781Z,15.13
2023-01-19T04:34:42.813Z,14.77
2023-01-19T04:37:21.455Z,14.20
2023-01-19T04:39:51.217Z,15.00
2023-01-19T04:42:20.364Z,15.10
2023-01-19T04:44:52.504Z,15.33
2023-01-19T04:47:28.091Z,15.30
2023-01-19T04:49:58.809Z,15.63
2023-01-19T04:52:32.708Z,16.50
2023-01-19T04:55:04.727Z,15.00
2023-01-19T04:57:40.812Z,15.47
2023-01-19T05:00:20.715Z,15.40
2023-01-19T05:02:51.252Z,15.90
2023-01-19T05:05:19.315Z,15.07
2023-01-19T05:07:49.524Z,16.10
2023-01-19T05:10:22.249Z,16.80
2023-01-19T05:12:51.159Z,17.10
2023-01-19T05:15:26.057Z,15.77
2023-01-19T05:17:56.973Z,15.60
2023-01-19T05:20:39.960Z,15.60
2023-01-19T05:23:16.198Z,15.70
2023-01-19T05:25:50.221Z,15.30
2023-01-19T05:28:28.029Z,15.10
2023-01-19T05:30:57.359Z,14.63
2023-01-19T05:33:29.400Z,16.53
2023-01-19T05:35:57.289Z,16.30
2023-01-19T05:38:40.857Z,15.50
2023-01-19T05:41:08.781Z,15.83
2023-01-19T05:43:38.809Z,16.87
2023-01-19T05:46:10.657Z,15.80
2023-01-19T05:48:45.025Z,16.13
2023-01-19T05:51:12.897Z,16.80
2023-01-19T05:53:45.263Z,16.77
2023-01-19T05:56:13.204Z,17.83
2023-01-19T05:58:44.082Z,16.80
2023-01-19T06:01:15.599Z,17.30
2023-01-19T06:03:46.097Z,16.40
2023-01-19T06:06:15.325Z,17.00
2023-01-19T06:08:49.148Z,17.60
2023-01-19T06:11:18.087Z,17.47
2023-01-19T06:13:46.740Z,17.67
2023-01-19T06:16:18.909Z,17.23
2023-01-19T06:18:49.923Z,18.30
2023-01-19T06:21:19.747Z,17.37
2023-01-19T06:23:50.447Z,17.20
2023-01-19T06:26:18.315Z,16.90
2023-01-19T06:28:49.102Z,17.40
2023-01-19T06:31:21.901Z,16.47
2023-01-19T06:33:53.606Z,16.20
2023-01-19T06:36:21.458Z,17.67
2023-01-19T06:38:49.329Z,16.87
2023-01-19T06:41:32.274Z,16.20
2023-01-19T06:44:07.645Z,16.50
2023-01-19T06:46:42.096Z,16.80
2023-01-19T06:49:11.676Z,16.20
2023-01-19T06:51:42.222Z,15.63
2023-01-19T06:54:12.911Z,14.87
2023-01-19T06:56:44.384Z,15.50
2023-01-19T06:59:12.310Z,15.17
2023-01-19T07:01:42.900Z,16.33
2023-01-19T07:04:13.992Z,17.07
2023-01-19T07:06:43.852Z,14.60
2023-01-19T07:09:16.955Z,14.90
2023-01-19T07:11:54.881Z,16.00
2023-01-19T07:14:23.948Z,15.77
2023-01-19T07:16:55.987Z,16.13
2023-01-19T07:19:27.580Z,16.20
2023-01-19T07:21:59.082Z,15.37
2023-01-19T07:24:26.983Z,16.83
2023-01-19T07:26:58.460Z,17.03
2023-01-19T07:29:30.539Z,16.13
2023-01-19T07:32:04.063Z,17.13
2023-01-19T07:34:34.560Z,17.03
2023-01-19T07:37:09.183Z,16.87
2023-01-19T07:39:41.750Z,16.67
2023-01-19T07:42:12.873Z,16.30
2023-01-19T07:44:42.174Z,17.50
2023-01-19T07:47:14.317Z,18.47
2023-01-19T07:49:42.488Z,18.80
2023-01-19T07:52:32.748Z,17.80
2023-01-19T07:55:03.984Z,17.57
2023-01-19T07:57:31.943Z,18.27
2023-01-19T07:59:59.975Z,17.90
2023-01-19T08:02:35.991Z,17.00
2023-01-19T08:05:06.025Z,17.40
2023-01-19T08:07:39.989Z,18.40
2023-01-19T08:10:09.018Z,18.80
2023-01-19T08:12:41.825Z,17.27
2023-01-19T08:15:10.998Z,18.07
2023-01-19T08:17:46.742Z,17.60
2023-01-19T08:20:17.658Z,18.87
2023-01-19T08:22:48.537Z,16.77
2023-01-19T08:25:16.555Z,16.60
2023-01-19T08:27:51.846Z,16.10
2023-01-19T08:30:32.628Z,17.33
2023-01-19T08:33:05.161Z,16.50
2023-01-19T08:35:38.098Z,16.70
2023-01-19T08:38:09.429Z,16.23
2023-01-19T08:40:40.337Z,16.20
2023-01-19T08:43:14.447Z,16.93
2023-01-19T08:45:56.490Z,15.10
2023-01-19T08:48:30.116Z,15.77
2023-01-19T08:51:00.288Z,16.17
2023-01-19T08:53:34.659Z,16.07
2023-01-19T08:56:04.493Z,15.40
2023-01-19T08:58:38.026Z,15.57
2023-01-19T09:01:18.577Z,15.77
2023-01-19T09:04:01.145Z,15.93
2023-01-19T09:06:29.175Z,16.30
2023-01-19T09:08:57.481Z,14.70
2023-01-19T09:11:32.197Z,16.07
2023-01-19T09:14:01.035Z,15.57
2023-01-19T09:16:31.087Z,15.80
2023-01-19T09:19:03.056Z,15.27
2023-01-19T09:21:33.108Z,15.90
2023-01-19T09:24:01.023Z,14.43
2023-01-19T09:26:28.965Z,16.20
2023-01-19T09:28:56.951Z,15.73
2023-01-19T09:31:24.938Z,15.90
2023-01-19T09:33:57.868Z,16.37
2023-01-19T09:36:35.282Z,17.00
2023-01-19T09:39:08.460Z,16.50
2023-01-19T09:41:38.952Z,17.43
2023-01-19T09:44:13.706Z,15.70
2023-01-19T09:46:43.139Z,17.23
2023-01-19T09:49:18.905Z,17.57
2023-01-19T09:51:51.491Z,16.20
2023-01-19T09:54:22.675Z,16.40
2023-01-19T09:56:52.867Z,16.97
2023-01-19T09:59:26.033Z,15.57
2023-01-19T10:02:25.391Z,16.37
2023-01-19T10:05:06.301Z,16.90
2023-01-19T10:07:53.299Z,16.40
2023-01-19T10:10:26.022Z,15.30
2023-01-19T10:13:10.527Z,15.67
2023-01-19T10:15:46.243Z,15.80
2023-01-19T10:18:21.353Z,14.57
2023-01-19T10:20:58.563Z,14.57
2023-01-19T10:23:40.385Z,14.90
2023-01-19T10:26:16.127Z,14.30
2023-01-19T10:28:46.444Z,14.57
2023-01-19T10:31:31.871Z,15.70
2023-01-19T10:34:04.460Z,14.63
2023-01-19T10:36:38.546Z,14.10
2023-01-19T10:39:17.529Z,13.50
2023-01-19T10:41:59.261Z,14.33
2023-01-19T10:44:41.848Z,15.07
2023-01-19T10:47:17.784Z,14.13
2023-01-19T10:49:47.379Z,14.03
2023-01-19T10:52:32.155Z,15.33
2023-01-19T10:55:10.599Z,14.90
2023-01-19T10:57:43.277Z,14.10
2023-01-19T11:00:32.349Z,14.63
2023-01-19T11:03:06.192Z,15.03
2023-01-19T11:05:35.188Z,15.33
2023-01-19T11:08:27.640Z,14.30
2023-01-19T11:11:02.427Z,15.00
2023-01-19T11:13:44.863Z,14.13
2023-01-19T11:16:24.116Z,13.90
2023-01-19T11:18:55.651Z,15.40
2023-01-19T11:21:27.794Z,14.97
2023-01-19T11:24:01.919Z,14.97
2023-01-19T11:26:49.704Z,14.40
2023-01-19T11:29:21.843Z,15.20
2023-01-19T11:31:50.701Z,15.20
2023-01-19T11:34:34.733Z,13.70
2023-01-19T11:37:12.205Z,14.50
2023-01-19T11:39:48.406Z,15.13
2023-01-19T11:42:26.606Z,15.70
2023-01-19T11:45:03.263Z,14.90
2023-01-19T11:47:37.009Z,13.30
2023-01-19T18:10:01.419Z,3.67
2023-01-19T18:12:31.341Z,3.80
2023-01-19T18:14:59.306Z,3.43
2023-01-19T18:17:27.254Z,3.70
2023-01-19T18:19:55.264Z,3.63
2023-01-19T18:22:23.182Z,3.00
2023-01-19T18:24:51.044Z,3.67
2023-01-19T18:27:21.839Z,3.00
2023-01-19T18:29:49.731Z,3.43
2023-01-19T18:32:17.664Z,2.80
2023-01-19T18:34:45.622Z,3.60
2023-01-19T18:37:13.542Z,2.80
2023-01-19T18:39:41.419Z,2.73
2023-01-19T18:42:10.760Z,2.90
2023-01-19T18:44:40.131Z,2.67
2023-01-19T18:47:08.004Z,2.70
2023-01-19T18:49:35.903Z,2.90
2023-01-19T18:52:04.093Z,2.33
2023-01-19T18:54:33.509Z,2.40
2023-01-19T18:57:01.476Z,2.70
2023-01-19T18:59:29.364Z,2.63
2023-01-19T19:02:01.482Z,2.53
2023-01-19T19:04:29.448Z,2.33
2023-01-19T19:06:57.315Z,2.60
2023-01-19T19:09:25.170Z,2.30
2023-01-19T19:11:53.152Z,2.43
2023-01-19T19:14:21.058Z,2.47
2023-01-19T19:16:48.993Z,2.40
2023-01-19T19:19:19.047Z,2.70
2023-01-19T19:21:46.955Z,2.07
2023-01-19T19:24:14.873Z,2.10
2023-01-19T19:26:42.888Z,2.03
2023-01-19T19:29:11.843Z,2.20
2023-01-19T19:31:39.766Z,2.63
2023-01-19T19:34:08.997Z,2.40
2023-01-19T19:36:38.239Z,2.63
2023-01-19T19:39:06.161Z,2.60
2023-01-19T19:41:34.075Z,2.13
2023-01-19T19:44:02.079Z,2.30
2023-01-19T19:46:31.989Z,1.70
2023-01-19T19:48:59.982Z,2.30
2023-01-19T19:51:28.969Z,2.20
2023-01-19T19:53:59.859Z,2.40
2023-01-19T19:56:29.335Z,2.30
2023-01-19T19:58:59.572Z,1.93
2023-01-19T20:01:32.647Z,1.90
2023-01-19T20:04:06.814Z,2.10
2023-01-19T20:06:38.592Z,1.97
2023-01-19T20:09:10.102Z,2.30
2023-01-19T20:11:38.240Z,2.17
2023-01-19T20:14:06.973Z,2.47
2023-01-19T20:16:37.734Z,2.10
2023-01-19T20:19:06.041Z,2.00
2023-01-19T20:21:35.629Z,2.47
2023-01-19T20:24:11.383Z,2.20
2023-01-19T20:26:51.540Z,2.70
2023-01-19T20:29:24.792Z,1.80
2023-01-19T20:31:58.930Z,1.60
2023-01-19T20:34:33.067Z,1.83
2023-01-19T20:37:06.022Z,2.50
2023-01-19T20:39:37.166Z,2.33
2023-01-19T20:42:15.272Z,1.93
2023-01-19T20:44:43.757Z,2.10
2023-01-19T20:47:15.617Z,2.10
2023-01-19T20:49:45.665Z,2.30
2023-01-19T20:52:22.724Z,2.50
2023-01-19T20:54:56.579Z,2.20
2023-01-19T20:57:24.801Z,2.70
2023-01-19T21:00:07.424Z,2.57
2023-01-19T21:02:39.870Z,2.10
2023-01-19T21:05:15.020Z,2.17
2023-01-19T21:07:43.177Z,2.60
2023-01-19T21:10:15.733Z,2.50
2023-01-19T21:12:44.238Z,2.30
2023-01-19T21:15:17.338Z,3.07
2023-01-19T21:17:49.211Z,2.33
2023-01-19T21:20:23.222Z,2.40
2023-01-19T21:22:55.936Z,2.70
2023-01-19T21:25:25.438Z,2.43
2023-01-19T21:27:53.355Z,2.53
2023-01-19T21:30:23.530Z,2.30
2023-01-19T21:32:55.812Z,2.90
2023-01-19T21:35:29.120Z,1.90
2023-01-19T21:38:08.103Z,2.57
2023-01-19T21:40:42.199Z,2.33
2023-01-19T21:43:14.576Z,2.70
2023-01-19T21:45:44.170Z,2.60
2023-01-19T21:48:13.862Z,2.23
2023-01-19T21:50:56.796Z,2.70
2023-01-19T21:53:33.624Z,2.13
2023-01-19T21:56:08.681Z,2.83
2023-01-19T21:58:38.734Z,2.70
2023-01-19T22:01:09.733Z,2.70
2023-01-19T22:03:37.983Z,3.20
2023-01-19T22:06:07.160Z,2.77
2023-01-19T22:08:47.091Z,2.73
2023-01-19T22:11:20.906Z,3.30
2023-01-19T22:13:52.210Z,2.60
2023-01-19T22:16:24.169Z,2.50
2023-01-19T22:19:02.914Z,2.50
2023-01-19T22:21:36.125Z,2.60
2023-01-19T22:24:06.608Z,2.57
2023-01-19T22:26:43.497Z,3.13
2023-01-19T22:29:17.905Z,2.50
2023-01-19T22:31:50.131Z,3.27
2023-01-19T22:34:19.199Z,3.37
2023-01-19T22:36:49.205Z,2.83
2023-01-19T22:39:17.045Z,3.03
2023-01-19T22:41:50.431Z,2.80
2023-01-19T22:44:21.857Z,2.83
2023-01-19T22:46:51.551Z,2.73
2023-01-19T22:49:21.290Z,2.87
2023-01-19T22:51:49.244Z,3.57
2023-01-19T22:54:27.549Z,3.03
